Current Weather

Phoenix Sky Harbor Intl

Phoenix, Arizona (KPHX)

Report from: Sunday, June 26, 2022 8:51 AM MST
Current time: Sunday, June 26, 2022 9:32 AM MST

Nearby weather
Weather history
Weather forecast

Temperature32.8°C (91.0°F)
Heat index31.7°C (89.1°F)
Dew point12.8°C (55.0°F)
Winds 7 kts (3.6 m/s, 8.1 mph) East-Southeast (110°)
Visibility10 mi. (16.1 km)
Clouds Scattered clouds 15,000 ft. (4,572 m)
Ceiling: Broken clouds 18,000 ft. (5,486 m)
Broken clouds 21,000 ft. (6,401 m)
Altimeter29.99 in.Hg (1016 mB)
Relative humidity30 %
Density altitude2,159 ft. (658 m)
Sea-level pressure101.3 kPa (1013 mB, 29.92 in.Hg)
Remarks System requires maintenance
Automated weather observing station with precipitation discriminator
Flight conditions Visual Meteorological Conditions
Raw dataKPHX 261551Z 11007KT 10SM SCT150 BKN180 BKN210 33/13 A2999 RMK AO2 SLP133 T03280128 $
An error has occurred. This application may no longer respond until reloaded. Reload 🗙